sensor_id;sensor_type;location;lat;lon;timestamp;P1;durP1;ratioP1;P2;durP2;ratioP2
727;SDS011;347;48.780;9.158;2023-04-29T00:00:40;7.10;;;6.70;;
727;SDS011;347;48.780;9.158;2023-04-29T00:03:05;7.23;;;6.73;;
727;SDS011;347;48.780;9.158;2023-04-29T00:05:32;7.07;;;6.77;;
727;SDS011;347;48.780;9.158;2023-04-29T00:07:57;6.60;;;6.40;;
727;SDS011;347;48.780;9.158;2023-04-29T00:10:23;7.20;;;6.90;;
727;SDS011;347;48.780;9.158;2023-04-29T00:12:49;7.47;;;7.07;;
727;SDS011;347;48.780;9.158;2023-04-29T00:15:15;6.50;;;6.30;;
727;SDS011;347;48.780;9.158;2023-04-29T00:17:41;10.13;;;6.57;;
727;SDS011;347;48.780;9.158;2023-04-29T00:20:07;6.53;;;6.23;;
727;SDS011;347;48.780;9.158;2023-04-29T00:22:34;6.83;;;6.47;;
727;SDS011;347;48.780;9.158;2023-04-29T00:25:00;6.73;;;6.40;;
727;SDS011;347;48.780;9.158;2023-04-29T00:27:25;6.13;;;5.93;;
727;SDS011;347;48.780;9.158;2023-04-29T00:29:51;6.30;;;6.10;;
727;SDS011;347;48.780;9.158;2023-04-29T00:32:17;6.77;;;6.37;;
727;SDS011;347;48.780;9.158;2023-04-29T00:34:43;6.40;;;6.20;;
727;SDS011;347;48.780;9.158;2023-04-29T00:37:09;6.90;;;6.60;;
727;SDS011;347;48.780;9.158;2023-04-29T00:39:34;6.70;;;6.40;;
727;SDS011;347;48.780;9.158;2023-04-29T00:42:00;7.00;;;6.70;;
727;SDS011;347;48.780;9.158;2023-04-29T00:44:27;7.23;;;6.93;;
727;SDS011;347;48.780;9.158;2023-04-29T00:46:52;7.23;;;6.67;;
727;SDS011;347;48.780;9.158;2023-04-29T00:49:18;7.30;;;6.90;;
727;SDS011;347;48.780;9.158;2023-04-29T00:51:45;7.40;;;7.00;;
727;SDS011;347;48.780;9.158;2023-04-29T00:54:11;6.90;;;6.60;;
727;SDS011;347;48.780;9.158;2023-04-29T00:56:38;7.17;;;6.77;;
727;SDS011;347;48.780;9.158;2023-04-29T00:59:07;7.00;;;6.80;;
727;SDS011;347;48.780;9.158;2023-04-29T01:01:34;7.20;;;6.80;;
727;SDS011;347;48.780;9.158;2023-04-29T01:04:00;7.40;;;6.80;;
727;SDS011;347;48.780;9.158;2023-04-29T01:11:58;7.60;;;7.30;;
727;SDS011;347;48.780;9.158;2023-04-29T01:14:47;8.03;;;7.63;;
727;SDS011;347;48.780;9.158;2023-04-29T01:17:18;7.27;;;6.93;;
727;SDS011;347;48.780;9.158;2023-04-29T01:19:51;6.50;;;6.13;;
727;SDS011;347;48.780;9.158;2023-04-29T01:22:22;7.43;;;7.13;;
727;SDS011;347;48.780;9.158;2023-04-29T01:24:48;7.50;;;7.00;;
727;SDS011;347;48.780;9.158;2023-04-29T01:27:33;6.97;;;6.67;;
727;SDS011;347;48.780;9.158;2023-04-29T01:30:11;6.57;;;6.20;;
727;SDS011;347;48.780;9.158;2023-04-29T01:32:43;6.47;;;6.27;;
727;SDS011;347;48.780;9.158;2023-04-29T01:35:39;7.07;;;6.70;;
727;SDS011;347;48.780;9.158;2023-04-29T01:40:55;6.10;;;5.80;;
727;SDS011;347;48.780;9.158;2023-04-29T01:43:31;6.53;;;6.13;;
727;SDS011;347;48.780;9.158;2023-04-29T01:45:58;7.93;;;7.33;;
727;SDS011;347;48.780;9.158;2023-04-29T01:48:25;6.43;;;6.10;;
727;SDS011;347;48.780;9.158;2023-04-29T01:50:51;6.77;;;6.43;;
727;SDS011;347;48.780;9.158;2023-04-29T01:53:16;7.23;;;6.80;;
727;SDS011;347;48.780;9.158;2023-04-29T01:55:42;6.97;;;6.57;;
727;SDS011;347;48.780;9.158;2023-04-29T01:58:08;7.07;;;6.70;;
727;SDS011;347;48.780;9.158;2023-04-29T02:00:37;7.00;;;6.70;;
727;SDS011;347;48.780;9.158;2023-04-29T02:03:03;7.63;;;7.23;;
727;SDS011;347;48.780;9.158;2023-04-29T02:05:29;6.73;;;6.40;;
727;SDS011;347;48.780;9.158;2023-04-29T02:07:57;7.30;;;7.10;;
727;SDS011;347;48.780;9.158;2023-04-29T02:10:24;7.83;;;7.53;;
727;SDS011;347;48.780;9.158;2023-04-29T02:12:49;8.13;;;7.73;;
727;SDS011;347;48.780;9.158;2023-04-29T02:15:15;8.60;;;8.30;;
727;SDS011;347;48.780;9.158;2023-04-29T02:17:41;7.67;;;7.37;;
727;SDS011;347;48.780;9.158;2023-04-29T02:20:07;7.80;;;7.50;;
727;SDS011;347;48.780;9.158;2023-04-29T02:22:34;8.47;;;8.07;;
727;SDS011;347;48.780;9.158;2023-04-29T02:24:59;8.50;;;8.20;;
727;SDS011;347;48.780;9.158;2023-04-29T02:27:25;8.27;;;7.90;;
727;SDS011;347;48.780;9.158;2023-04-29T02:29:51;8.67;;;8.37;;
727;SDS011;347;48.780;9.158;2023-04-29T02:32:16;8.40;;;8.00;;
727;SDS011;347;48.780;9.158;2023-04-29T02:34:44;8.53;;;8.23;;
727;SDS011;347;48.780;9.158;2023-04-29T02:37:10;8.70;;;8.40;;
727;SDS011;347;48.780;9.158;2023-04-29T02:39:36;8.50;;;8.20;;
727;SDS011;347;48.780;9.158;2023-04-29T02:42:01;8.73;;;8.23;;
727;SDS011;347;48.780;9.158;2023-04-29T02:44:27;8.87;;;8.47;;
727;SDS011;347;48.780;9.158;2023-04-29T02:46:54;9.27;;;8.90;;
727;SDS011;347;48.780;9.158;2023-04-29T02:49:20;8.77;;;8.47;;
727;SDS011;347;48.780;9.158;2023-04-29T02:51:45;9.30;;;9.00;;
727;SDS011;347;48.780;9.158;2023-04-29T02:54:13;9.03;;;8.63;;
727;SDS011;347;48.780;9.158;2023-04-29T02:56:40;8.90;;;8.30;;
727;SDS011;347;48.780;9.158;2023-04-29T02:59:06;9.60;;;9.30;;
727;SDS011;347;48.780;9.158;2023-04-29T03:01:32;9.43;;;9.03;;
727;SDS011;347;48.780;9.158;2023-04-29T03:03:58;9.43;;;9.03;;
727;SDS011;347;48.780;9.158;2023-04-29T03:06:23;9.30;;;9.00;;
727;SDS011;347;48.780;9.158;2023-04-29T03:08:49;9.77;;;9.37;;
727;SDS011;347;48.780;9.158;2023-04-29T03:11:16;8.67;;;8.37;;
727;SDS011;347;48.780;9.158;2023-04-29T03:13:42;9.27;;;8.77;;
727;SDS011;347;48.780;9.158;2023-04-29T03:16:07;9.47;;;9.17;;
727;SDS011;347;48.780;9.158;2023-04-29T03:18:33;9.27;;;8.80;;
727;SDS011;347;48.780;9.158;2023-04-29T03:20:59;9.63;;;9.33;;
727;SDS011;347;48.780;9.158;2023-04-29T03:23:25;9.90;;;9.50;;
727;SDS011;347;48.780;9.158;2023-04-29T03:25:51;9.90;;;9.60;;
727;SDS011;347;48.780;9.158;2023-04-29T03:28:19;9.93;;;9.50;;
727;SDS011;347;48.780;9.158;2023-04-29T03:30:45;9.70;;;9.30;;
727;SDS011;347;48.780;9.158;2023-04-29T03:33:10;9.90;;;9.40;;
727;SDS011;347;48.780;9.158;2023-04-29T03:35:36;10.53;;;10.03;;
727;SDS011;347;48.780;9.158;2023-04-29T03:38:01;10.27;;;9.60;;
727;SDS011;347;48.780;9.158;2023-04-29T03:40:27;10.50;;;9.90;;
727;SDS011;347;48.780;9.158;2023-04-29T03:42:53;9.73;;;9.23;;
727;SDS011;347;48.780;9.158;2023-04-29T03:45:19;10.00;;;9.50;;
727;SDS011;347;48.780;9.158;2023-04-29T03:47:45;9.20;;;8.90;;
727;SDS011;347;48.780;9.158;2023-04-29T03:50:10;9.60;;;9.30;;
727;SDS011;347;48.780;9.158;2023-04-29T03:52:36;9.60;;;9.30;;
727;SDS011;347;48.780;9.158;2023-04-29T03:55:02;9.73;;;9.33;;
727;SDS011;347;48.780;9.158;2023-04-29T03:57:28;9.40;;;9.00;;
727;SDS011;347;48.780;9.158;2023-04-29T03:59:53;10.27;;;9.87;;
727;SDS011;347;48.780;9.158;2023-04-29T04:02:19;10.37;;;9.87;;
727;SDS011;347;48.780;9.158;2023-04-29T04:04:45;10.53;;;10.13;;
727;SDS011;347;48.780;9.158;2023-04-29T04:07:10;10.50;;;10.10;;
727;SDS011;347;48.780;9.158;2023-04-29T04:09:36;10.73;;;10.33;;
727;SDS011;347;48.780;9.158;2023-04-29T04:12:02;9.97;;;9.57;;
727;SDS011;347;48.780;9.158;2023-04-29T04:14:28;11.07;;;10.47;;
727;SDS011;347;48.780;9.158;2023-04-29T04:16:54;11.30;;;10.80;;
727;SDS011;347;48.780;9.158;2023-04-29T04:19:20;10.20;;;9.80;;
727;SDS011;347;48.780;9.158;2023-04-29T04:21:45;11.57;;;11.07;;
727;SDS011;347;48.780;9.158;2023-04-29T04:24:11;11.27;;;10.87;;
727;SDS011;347;48.780;9.158;2023-04-29T04:26:37;11.17;;;10.57;;
727;SDS011;347;48.780;9.158;2023-04-29T04:29:02;10.70;;;10.30;;
727;SDS011;347;48.780;9.158;2023-04-29T04:31:29;11.20;;;10.67;;
727;SDS011;347;48.780;9.158;2023-04-29T04:33:55;10.07;;;9.67;;
727;SDS011;347;48.780;9.158;2023-04-29T04:36:21;10.40;;;10.00;;
727;SDS011;347;48.780;9.158;2023-04-29T04:38:47;10.80;;;10.40;;
727;SDS011;347;48.780;9.158;2023-04-29T04:41:13;11.00;;;10.50;;
727;SDS011;347;48.780;9.158;2023-04-29T04:43:38;11.37;;;10.97;;
727;SDS011;347;48.780;9.158;2023-04-29T04:46:14;11.70;;;11.20;;
727;SDS011;347;48.780;9.158;2023-04-29T04:48:41;9.90;;;9.50;;
727;SDS011;347;48.780;9.158;2023-04-29T04:51:10;10.53;;;10.13;;
727;SDS011;347;48.780;9.158;2023-04-29T04:53:36;9.80;;;9.40;;
727;SDS011;347;48.780;9.158;2023-04-29T04:56:03;10.27;;;9.87;;
727;SDS011;347;48.780;9.158;2023-04-29T04:58:29;10.63;;;10.23;;
727;SDS011;347;48.780;9.158;2023-04-29T05:00:58;10.43;;;10.03;;
727;SDS011;347;48.780;9.158;2023-04-29T05:03:24;11.40;;;11.00;;
727;SDS011;347;48.780;9.158;2023-04-29T05:05:54;11.43;;;10.93;;
727;SDS011;347;48.780;9.158;2023-04-29T05:08:20;10.20;;;9.80;;
727;SDS011;347;48.780;9.158;2023-04-29T05:10:46;10.20;;;9.80;;
727;SDS011;347;48.780;9.158;2023-04-29T05:13:11;10.17;;;9.77;;
727;SDS011;347;48.780;9.158;2023-04-29T05:15:37;10.50;;;10.10;;
727;SDS011;347;48.780;9.158;2023-04-29T05:18:02;9.00;;;8.60;;
727;SDS011;347;48.780;9.158;2023-04-29T05:20:28;10.50;;;10.10;;
727;SDS011;347;48.780;9.158;2023-04-29T05:22:53;10.40;;;10.00;;
727;SDS011;347;48.780;9.158;2023-04-29T05:25:19;9.77;;;9.37;;
727;SDS011;347;48.780;9.158;2023-04-29T05:27:45;10.57;;;10.03;;
727;SDS011;347;48.780;9.158;2023-04-29T05:30:10;9.67;;;9.03;;
727;SDS011;347;48.780;9.158;2023-04-29T05:32:36;10.17;;;9.77;;
727;SDS011;347;48.780;9.158;2023-04-29T05:35:02;10.07;;;9.67;;
727;SDS011;347;48.780;9.158;2023-04-29T05:37:28;10.07;;;9.57;;
727;SDS011;347;48.780;9.158;2023-04-29T05:39:56;10.20;;;9.87;;
727;SDS011;347;48.780;9.158;2023-04-29T05:42:21;9.50;;;9.13;;
727;SDS011;347;48.780;9.158;2023-04-29T05:44:47;9.73;;;9.33;;
727;SDS011;347;48.780;9.158;2023-04-29T05:47:13;10.20;;;9.53;;
727;SDS011;347;48.780;9.158;2023-04-29T05:49:39;10.63;;;10.13;;
727;SDS011;347;48.780;9.158;2023-04-29T05:52:05;9.73;;;9.33;;
727;SDS011;347;48.780;9.158;2023-04-29T05:54:31;11.10;;;10.60;;
727;SDS011;347;48.780;9.158;2023-04-29T05:56:57;10.87;;;10.37;;
727;SDS011;347;48.780;9.158;2023-04-29T05:59:28;10.63;;;9.93;;
727;SDS011;347;48.780;9.158;2023-04-29T06:01:55;10.97;;;10.37;;
727;SDS011;347;48.780;9.158;2023-04-29T06:04:21;10.53;;;10.13;;
727;SDS011;347;48.780;9.158;2023-04-29T06:06:46;10.50;;;10.10;;
727;SDS011;347;48.780;9.158;2023-04-29T06:09:12;11.57;;;10.90;;
727;SDS011;347;48.780;9.158;2023-04-29T06:11:42;10.13;;;9.73;;
727;SDS011;347;48.780;9.158;2023-04-29T06:14:11;10.93;;;10.33;;
727;SDS011;347;48.780;9.158;2023-04-29T06:16:37;10.10;;;9.50;;
727;SDS011;347;48.780;9.158;2023-04-29T06:19:03;10.87;;;10.27;;
727;SDS011;347;48.780;9.158;2023-04-29T06:21:29;9.83;;;9.43;;
727;SDS011;347;48.780;9.158;2023-04-29T06:23:55;9.63;;;9.23;;
727;SDS011;347;48.780;9.158;2023-04-29T06:26:21;10.33;;;9.83;;
727;SDS011;347;48.780;9.158;2023-04-29T06:28:47;10.53;;;9.80;;
727;SDS011;347;48.780;9.158;2023-04-29T06:31:13;11.50;;;11.00;;
727;SDS011;347;48.780;9.158;2023-04-29T06:33:39;12.50;;;11.80;;
727;SDS011;347;48.780;9.158;2023-04-29T06:36:05;10.40;;;9.90;;
727;SDS011;347;48.780;9.158;2023-04-29T06:38:31;11.83;;;11.23;;
727;SDS011;347;48.780;9.158;2023-04-29T06:40:56;11.00;;;10.30;;
727;SDS011;347;48.780;9.158;2023-04-29T06:43:31;10.27;;;9.87;;
727;SDS011;347;48.780;9.158;2023-04-29T06:45:56;11.10;;;10.40;;
727;SDS011;347;48.780;9.158;2023-04-29T06:48:22;10.60;;;10.20;;
727;SDS011;347;48.780;9.158;2023-04-29T06:50:49;10.20;;;9.70;;
727;SDS011;347;48.780;9.158;2023-04-29T06:53:15;9.90;;;9.40;;
727;SDS011;347;48.780;9.158;2023-04-29T06:55:41;9.50;;;9.10;;
727;SDS011;347;48.780;9.158;2023-04-29T06:58:07;9.80;;;9.40;;
727;SDS011;347;48.780;9.158;2023-04-29T07:00:32;9.93;;;9.53;;
727;SDS011;347;48.780;9.158;2023-04-29T07:02:58;9.37;;;9.00;;
727;SDS011;347;48.780;9.158;2023-04-29T07:05:24;9.50;;;9.10;;
727;SDS011;347;48.780;9.158;2023-04-29T07:07:50;9.37;;;9.07;;
727;SDS011;347;48.780;9.158;2023-04-29T07:10:15;9.47;;;9.17;;
727;SDS011;347;48.780;9.158;2023-04-29T07:12:41;9.17;;;8.87;;
727;SDS011;347;48.780;9.158;2023-04-29T07:15:07;9.87;;;9.53;;
727;SDS011;347;48.780;9.158;2023-04-29T07:17:33;10.50;;;9.90;;
727;SDS011;347;48.780;9.158;2023-04-29T07:19:58;9.17;;;8.87;;
727;SDS011;347;48.780;9.158;2023-04-29T07:22:24;8.73;;;8.43;;
727;SDS011;347;48.780;9.158;2023-04-29T07:24:52;8.80;;;8.47;;
727;SDS011;347;48.780;9.158;2023-04-29T07:27:18;9.57;;;8.93;;
727;SDS011;347;48.780;9.158;2023-04-29T07:29:44;8.60;;;8.30;;
727;SDS011;347;48.780;9.158;2023-04-29T07:32:10;8.87;;;8.47;;
727;SDS011;347;48.780;9.158;2023-04-29T07:34:35;9.57;;;9.10;;
727;SDS011;347;48.780;9.158;2023-04-29T07:37:02;9.20;;;8.80;;
727;SDS011;347;48.780;9.158;2023-04-29T07:39:27;9.47;;;9.07;;
727;SDS011;347;48.780;9.158;2023-04-29T07:41:54;9.50;;;9.20;;
727;SDS011;347;48.780;9.158;2023-04-29T07:44:20;9.20;;;8.90;;
727;SDS011;347;48.780;9.158;2023-04-29T07:46:46;10.00;;;9.60;;
727;SDS011;347;48.780;9.158;2023-04-29T07:49:12;9.13;;;8.80;;
727;SDS011;347;48.780;9.158;2023-04-29T07:51:41;9.50;;;8.90;;
727;SDS011;347;48.780;9.158;2023-04-29T07:54:09;9.20;;;8.90;;
727;SDS011;347;48.780;9.158;2023-04-29T07:56:34;9.23;;;8.93;;
727;SDS011;347;48.780;9.158;2023-04-29T07:59:00;8.73;;;8.43;;
727;SDS011;347;48.780;9.158;2023-04-29T08:01:26;9.50;;;9.20;;
727;SDS011;347;48.780;9.158;2023-04-29T08:03:52;9.97;;;9.47;;
727;SDS011;347;48.780;9.158;2023-04-29T08:06:18;9.60;;;9.00;;
727;SDS011;347;48.780;9.158;2023-04-29T08:08:46;9.40;;;9.10;;
727;SDS011;347;48.780;9.158;2023-04-29T08:11:16;9.40;;;9.07;;
727;SDS011;347;48.780;9.158;2023-04-29T08:13:46;9.00;;;8.70;;
727;SDS011;347;48.780;9.158;2023-04-29T08:16:12;8.43;;;8.13;;
727;SDS011;347;48.780;9.158;2023-04-29T08:18:38;9.03;;;8.70;;
727;SDS011;347;48.780;9.158;2023-04-29T08:21:04;8.93;;;8.63;;
727;SDS011;347;48.780;9.158;2023-04-29T08:23:30;8.53;;;8.23;;
727;SDS011;347;48.780;9.158;2023-04-29T08:25:56;10.27;;;9.87;;
727;SDS011;347;48.780;9.158;2023-04-29T08:28:22;10.10;;;9.70;;
727;SDS011;347;48.780;9.158;2023-04-29T08:30:48;10.43;;;9.93;;
727;SDS011;347;48.780;9.158;2023-04-29T08:33:14;9.90;;;9.40;;
727;SDS011;347;48.780;9.158;2023-04-29T08:35:40;8.80;;;8.40;;
727;SDS011;347;48.780;9.158;2023-04-29T08:38:07;9.90;;;9.50;;
727;SDS011;347;48.780;9.158;2023-04-29T08:40:34;10.20;;;9.70;;
727;SDS011;347;48.780;9.158;2023-04-29T08:43:11;9.40;;;9.00;;
727;SDS011;347;48.780;9.158;2023-04-29T08:45:39;9.90;;;9.50;;
727;SDS011;347;48.780;9.158;2023-04-29T08:48:06;10.20;;;9.80;;
727;SDS011;347;48.780;9.158;2023-04-29T08:50:36;9.90;;;9.60;;
727;SDS011;347;48.780;9.158;2023-04-29T08:53:06;10.80;;;10.40;;
727;SDS011;347;48.780;9.158;2023-04-29T08:55:43;10.70;;;10.10;;
727;SDS011;347;48.780;9.158;2023-04-29T08:58:09;10.00;;;9.60;;
727;SDS011;347;48.780;9.158;2023-04-29T09:00:36;11.00;;;10.60;;
727;SDS011;347;48.780;9.158;2023-04-29T09:03:08;10.73;;;10.23;;
727;SDS011;347;48.780;9.158;2023-04-29T09:05:57;10.70;;;10.30;;
727;SDS011;347;48.780;9.158;2023-04-29T09:08:25;11.10;;;10.60;;
727;SDS011;347;48.780;9.158;2023-04-29T09:10:51;11.60;;;11.10;;
727;SDS011;347;48.780;9.158;2023-04-29T09:13:24;11.30;;;10.70;;
727;SDS011;347;48.780;9.158;2023-04-29T09:15:52;10.27;;;9.87;;
727;SDS011;347;48.780;9.158;2023-04-29T09:23:39;10.30;;;9.80;;
727;SDS011;347;48.780;9.158;2023-04-29T09:26:05;11.73;;;11.23;;
727;SDS011;347;48.780;9.158;2023-04-29T09:28:31;11.30;;;10.80;;
727;SDS011;347;48.780;9.158;2023-04-29T09:30:57;12.00;;;11.40;;
727;SDS011;347;48.780;9.158;2023-04-29T09:33:23;13.13;;;12.53;;
727;SDS011;347;48.780;9.158;2023-04-29T09:35:52;12.17;;;11.77;;
727;SDS011;347;48.780;9.158;2023-04-29T09:38:18;11.43;;;10.93;;
727;SDS011;347;48.780;9.158;2023-04-29T09:40:45;10.90;;;10.40;;
727;SDS011;347;48.780;9.158;2023-04-29T09:43:12;11.60;;;11.10;;
727;SDS011;347;48.780;9.158;2023-04-29T09:45:39;10.90;;;10.50;;
727;SDS011;347;48.780;9.158;2023-04-29T09:48:07;9.50;;;9.20;;
727;SDS011;347;48.780;9.158;2023-04-29T09:50:34;10.90;;;10.17;;
727;SDS011;347;48.780;9.158;2023-04-29T09:53:08;10.20;;;9.80;;
727;SDS011;347;48.780;9.158;2023-04-29T09:55:36;10.43;;;10.03;;
727;SDS011;347;48.780;9.158;2023-04-29T09:58:31;9.30;;;8.90;;
727;SDS011;347;48.780;9.158;2023-04-29T10:01:01;9.70;;;9.30;;
727;SDS011;347;48.780;9.158;2023-04-29T10:03:30;10.70;;;10.20;;
727;SDS011;347;48.780;9.158;2023-04-29T10:05:57;10.47;;;10.00;;
727;SDS011;347;48.780;9.158;2023-04-29T10:08:25;9.80;;;9.20;;
727;SDS011;347;48.780;9.158;2023-04-29T10:10:52;10.50;;;10.00;;
727;SDS011;347;48.780;9.158;2023-04-29T10:13:25;10.40;;;10.00;;
727;SDS011;347;48.780;9.158;2023-04-29T10:15:57;10.30;;;9.70;;
727;SDS011;347;48.780;9.158;2023-04-29T10:18:35;10.13;;;9.63;;
727;SDS011;347;48.780;9.158;2023-04-29T10:21:02;9.93;;;9.43;;
727;SDS011;347;48.780;9.158;2023-04-29T10:23:30;10.03;;;9.53;;
727;SDS011;347;48.780;9.158;2023-04-29T10:25:58;9.00;;;8.60;;
727;SDS011;347;48.780;9.158;2023-04-29T10:28:25;10.30;;;9.90;;
727;SDS011;347;48.780;9.158;2023-04-29T10:30:51;10.50;;;9.70;;
727;SDS011;347;48.780;9.158;2023-04-29T10:33:18;9.97;;;9.53;;
727;SDS011;347;48.780;9.158;2023-04-29T10:35:45;10.10;;;9.70;;
727;SDS011;347;48.780;9.158;2023-04-29T10:38:19;10.70;;;10.20;;
727;SDS011;347;48.780;9.158;2023-04-29T10:40:52;11.07;;;10.63;;
727;SDS011;347;48.780;9.158;2023-04-29T10:43:23;9.97;;;9.57;;
727;SDS011;347;48.780;9.158;2023-04-29T10:45:49;10.77;;;10.23;;
727;SDS011;347;48.780;9.158;2023-04-29T10:48:35;10.13;;;9.63;;
727;SDS011;347;48.780;9.158;2023-04-29T10:51:01;11.03;;;10.63;;
727;SDS011;347;48.780;9.158;2023-04-29T10:53:27;12.37;;;11.67;;
727;SDS011;347;48.780;9.158;2023-04-29T10:55:55;11.70;;;10.90;;
727;SDS011;347;48.780;9.158;2023-04-29T10:58:42;10.30;;;9.90;;
727;SDS011;347;48.780;9.158;2023-04-29T11:01:10;11.37;;;10.87;;
727;SDS011;347;48.780;9.158;2023-04-29T11:03:51;10.63;;;10.23;;
727;SDS011;347;48.780;9.158;2023-04-29T11:09:02;10.43;;;9.97;;
727;SDS011;347;48.780;9.158;2023-04-29T11:11:43;10.07;;;9.67;;
727;SDS011;347;48.780;9.158;2023-04-29T11:14:33;10.60;;;10.10;;
727;SDS011;347;48.780;9.158;2023-04-29T11:17:09;9.37;;;8.97;;
727;SDS011;347;48.780;9.158;2023-04-29T11:19:43;10.40;;;9.80;;
727;SDS011;347;48.780;9.158;2023-04-29T11:27:33;10.23;;;9.83;;
727;SDS011;347;48.780;9.158;2023-04-29T11:30:00;9.90;;;9.50;;
727;SDS011;347;48.780;9.158;2023-04-29T11:32:33;9.77;;;9.47;;
727;SDS011;347;48.780;9.158;2023-04-29T11:35:10;10.80;;;10.23;;
727;SDS011;347;48.780;9.158;2023-04-29T11:37:37;10.00;;;9.60;;
727;SDS011;347;48.780;9.158;2023-04-29T11:40:04;10.47;;;9.80;;
727;SDS011;347;48.780;9.158;2023-04-29T11:42:33;10.00;;;9.60;;
727;SDS011;347;48.780;9.158;2023-04-29T11:45:16;10.10;;;9.70;;
727;SDS011;347;48.780;9.158;2023-04-29T11:47:43;10.10;;;9.70;;
727;SDS011;347;48.780;9.158;2023-04-29T11:53:32;10.60;;;10.20;;
727;SDS011;347;48.780;9.158;2023-04-29T11:55:59;11.40;;;10.90;;
727;SDS011;347;48.780;9.158;2023-04-29T11:58:24;12.27;;;11.47;;
727;SDS011;347;48.780;9.158;2023-04-29T12:00:50;11.63;;;11.13;;
727;SDS011;347;48.780;9.158;2023-04-29T12:03:16;10.43;;;9.93;;
727;SDS011;347;48.780;9.158;2023-04-29T12:05:53;10.30;;;9.80;;
727;SDS011;347;48.780;9.158;2023-04-29T12:08:30;11.67;;;11.17;;
727;SDS011;347;48.780;9.158;2023-04-29T12:10:58;11.90;;;11.10;;
727;SDS011;347;48.780;9.158;2023-04-29T12:13:26;12.10;;;11.40;;
727;SDS011;347;48.780;9.158;2023-04-29T12:15:56;12.40;;;11.80;;
727;SDS011;347;48.780;9.158;2023-04-29T12:18:22;12.53;;;11.67;;
727;SDS011;347;48.780;9.158;2023-04-29T12:20:49;12.47;;;11.87;;
727;SDS011;347;48.780;9.158;2023-04-29T12:23:21;12.93;;;12.30;;
727;SDS011;347;48.780;9.158;2023-04-29T12:25:48;14.37;;;13.57;;
727;SDS011;347;48.780;9.158;2023-04-29T12:28:15;13.47;;;12.67;;
727;SDS011;347;48.780;9.158;2023-04-29T12:30:45;13.70;;;12.73;;
727;SDS011;347;48.780;9.158;2023-04-29T12:33:17;13.43;;;12.73;;
727;SDS011;347;48.780;9.158;2023-04-29T12:35:44;13.47;;;12.77;;
727;SDS011;347;48.780;9.158;2023-04-29T12:38:09;12.47;;;11.83;;
727;SDS011;347;48.780;9.158;2023-04-29T12:40:38;15.17;;;14.47;;
727;SDS011;347;48.780;9.158;2023-04-29T12:43:07;13.50;;;12.60;;
727;SDS011;347;48.780;9.158;2023-04-29T12:45:34;14.10;;;13.23;;
727;SDS011;347;48.780;9.158;2023-04-29T12:48:00;15.83;;;14.93;;
727;SDS011;347;48.780;9.158;2023-04-29T12:50:28;15.37;;;14.57;;
727;SDS011;347;48.780;9.158;2023-04-29T12:52:57;15.53;;;14.73;;
727;SDS011;347;48.780;9.158;2023-04-29T12:55:23;14.70;;;13.90;;
727;SDS011;347;48.780;9.158;2023-04-29T12:57:48;14.00;;;13.20;;
727;SDS011;347;48.780;9.158;2023-04-29T13:00:14;14.43;;;13.60;;
727;SDS011;347;48.780;9.158;2023-04-29T13:02:40;15.10;;;14.20;;
727;SDS011;347;48.780;9.158;2023-04-29T13:05:06;13.63;;;12.90;;
727;SDS011;347;48.780;9.158;2023-04-29T13:07:32;15.43;;;14.43;;
727;SDS011;347;48.780;9.158;2023-04-29T13:09:57;14.43;;;13.63;;
727;SDS011;347;48.780;9.158;2023-04-29T13:12:23;15.20;;;14.40;;
727;SDS011;347;48.780;9.158;2023-04-29T13:14:49;13.10;;;12.40;;
727;SDS011;347;48.780;9.158;2023-04-29T13:17:15;14.73;;;13.90;;
727;SDS011;347;48.780;9.158;2023-04-29T13:19:40;15.80;;;14.90;;
727;SDS011;347;48.780;9.158;2023-04-29T13:22:08;14.83;;;13.93;;
727;SDS011;347;48.780;9.158;2023-04-29T13:24:34;15.80;;;14.50;;
727;SDS011;347;48.780;9.158;2023-04-29T13:27:00;15.73;;;14.80;;
727;SDS011;347;48.780;9.158;2023-04-29T13:29:28;16.30;;;15.40;;
727;SDS011;347;48.780;9.158;2023-04-29T13:31:53;14.93;;;14.00;;
727;SDS011;347;48.780;9.158;2023-04-29T13:34:20;15.43;;;14.37;;
727;SDS011;347;48.780;9.158;2023-04-29T13:36:45;14.27;;;13.47;;
727;SDS011;347;48.780;9.158;2023-04-29T13:39:11;14.43;;;13.53;;
727;SDS011;347;48.780;9.158;2023-04-29T13:41:37;15.67;;;14.77;;
727;SDS011;347;48.780;9.158;2023-04-29T13:44:03;15.77;;;14.87;;
727;SDS011;347;48.780;9.158;2023-04-29T13:46:28;15.37;;;14.47;;
727;SDS011;347;48.780;9.158;2023-04-29T13:48:56;15.30;;;14.40;;
727;SDS011;347;48.780;9.158;2023-04-29T13:51:22;16.50;;;15.30;;
727;SDS011;347;48.780;9.158;2023-04-29T13:53:47;14.43;;;13.63;;
727;SDS011;347;48.780;9.158;2023-04-29T13:56:13;15.57;;;14.67;;
727;SDS011;347;48.780;9.158;2023-04-29T13:58:40;16.20;;;15.30;;
727;SDS011;347;48.780;9.158;2023-04-29T14:01:06;14.37;;;13.37;;
727;SDS011;347;48.780;9.158;2023-04-29T14:03:32;13.23;;;12.53;;
727;SDS011;347;48.780;9.158;2023-04-29T14:05:57;15.07;;;13.97;;
727;SDS011;347;48.780;9.158;2023-04-29T14:08:23;15.67;;;14.67;;
727;SDS011;347;48.780;9.158;2023-04-29T14:10:49;14.10;;;13.37;;
727;SDS011;347;48.780;9.158;2023-04-29T14:13:16;14.30;;;13.50;;
727;SDS011;347;48.780;9.158;2023-04-29T14:15:42;15.60;;;14.60;;
727;SDS011;347;48.780;9.158;2023-04-29T14:18:07;14.90;;;13.90;;
727;SDS011;347;48.780;9.158;2023-04-29T14:20:34;15.90;;;14.87;;
727;SDS011;347;48.780;9.158;2023-04-29T14:23:00;14.47;;;13.60;;
727;SDS011;347;48.780;9.158;2023-04-29T14:25:26;14.20;;;13.30;;
727;SDS011;347;48.780;9.158;2023-04-29T14:27:52;14.97;;;13.97;;
727;SDS011;347;48.780;9.158;2023-04-29T14:30:17;14.33;;;13.47;;
727;SDS011;347;48.780;9.158;2023-04-29T14:32:43;12.90;;;12.00;;
727;SDS011;347;48.780;9.158;2023-04-29T14:35:10;14.30;;;13.40;;
727;SDS011;347;48.780;9.158;2023-04-29T14:37:35;13.57;;;12.57;;
727;SDS011;347;48.780;9.158;2023-04-29T14:40:01;14.63;;;13.73;;
727;SDS011;347;48.780;9.158;2023-04-29T14:42:28;15.60;;;14.60;;
727;SDS011;347;48.780;9.158;2023-04-29T14:44:54;13.00;;;12.00;;
727;SDS011;347;48.780;9.158;2023-04-29T14:47:20;13.53;;;12.63;;
727;SDS011;347;48.780;9.158;2023-04-29T14:49:45;16.37;;;15.27;;
727;SDS011;347;48.780;9.158;2023-04-29T14:52:11;15.70;;;14.80;;
727;SDS011;347;48.780;9.158;2023-04-29T14:54:37;16.63;;;15.60;;
727;SDS011;347;48.780;9.158;2023-04-29T14:57:02;15.37;;;14.50;;
727;SDS011;347;48.780;9.158;2023-04-29T14:59:28;19.40;;;18.00;;
727;SDS011;347;48.780;9.158;2023-04-29T15:01:54;15.83;;;14.87;;
727;SDS011;347;48.780;9.158;2023-04-29T15:04:21;16.47;;;15.47;;
727;SDS011;347;48.780;9.158;2023-04-29T15:06:47;14.70;;;13.80;;
727;SDS011;347;48.780;9.158;2023-04-29T15:09:13;16.17;;;15.10;;
727;SDS011;347;48.780;9.158;2023-04-29T15:11:40;15.77;;;14.63;;
727;SDS011;347;48.780;9.158;2023-04-29T15:14:06;15.27;;;14.37;;
727;SDS011;347;48.780;9.158;2023-04-29T15:16:31;16.23;;;15.23;;
727;SDS011;347;48.780;9.158;2023-04-29T15:18:58;15.43;;;14.53;;
727;SDS011;347;48.780;9.158;2023-04-29T15:21:24;15.00;;;14.10;;
727;SDS011;347;48.780;9.158;2023-04-29T15:23:51;15.30;;;14.10;;
727;SDS011;347;48.780;9.158;2023-04-29T15:26:16;14.20;;;13.37;;
727;SDS011;347;48.780;9.158;2023-04-29T15:28:43;14.57;;;13.67;;
727;SDS011;347;48.780;9.158;2023-04-29T15:31:09;14.50;;;13.70;;
727;SDS011;347;48.780;9.158;2023-04-29T15:33:36;12.97;;;12.23;;
727;SDS011;347;48.780;9.158;2023-04-29T15:36:02;14.50;;;13.33;;
727;SDS011;347;48.780;9.158;2023-04-29T15:38:28;15.73;;;14.73;;
727;SDS011;347;48.780;9.158;2023-04-29T15:40:53;13.97;;;13.13;;
727;SDS011;347;48.780;9.158;2023-04-29T15:43:25;14.93;;;13.80;;
727;SDS011;347;48.780;9.158;2023-04-29T15:45:54;14.70;;;13.80;;
727;SDS011;347;48.780;9.158;2023-04-29T15:48:20;15.50;;;14.60;;
727;SDS011;347;48.780;9.158;2023-04-29T15:50:46;14.40;;;13.40;;
727;SDS011;347;48.780;9.158;2023-04-29T15:53:12;14.23;;;13.07;;
727;SDS011;347;48.780;9.158;2023-04-29T15:55:37;13.37;;;12.47;;